Terminal Aerodrome Forecast
Issued by NWS Paducah, KY

Home | Current Version | Previous Version | Text Only | Print | Product List | Glossary On
Versions: 1 2 3 4 5 6 7 8 9 10 11 12 13
000
FTUS43 KPAH 191100 RRA
TAFPAH
TAF
KPAH 191140Z 1912/2012 00000KT 6SM HZ FEW050
     FM191400 10005KT P6SM SCT050
     FM200000 18003KT P6SM SCT050=

USA.gov is the U.S. government's official web portal to all federal, state and local government web resources and services.